Time;durP1;ratioP1;P1;durP2;ratioP2;P2;SDS_P1;SDS_P2;PMS_P1;PMS_P2;Temp;Humidity;BMP_temperature;BMP_pressure;BME280_temperature;BME280_humidity;BME280_pressure;Samples;Min_cycle;Max_cycle;Signal;HPM_P1;HPM_P2
2021/05/08 00:00:29;;;;;;;4.80;2.87;;;;;;;12.33;89.78;99558.95;1843631;76;22181;-74
2021/05/08 00:02:56;;;;;;;4.83;3.00;;;;;;;12.35;89.65;99547.97;1847247;76;21971;-74
2021/05/08 00:05:24;;;;;;;3.90;2.50;;;;;;;12.35;89.40;99546.08;1843042;77;21426;-74
2021/05/08 00:07:53;;;;;;;4.37;2.83;;;;;;;12.35;89.28;99551.44;1807915;78;22027;-74
2021/05/08 00:10:21;;;;;;;5.20;2.87;;;;;;;12.36;89.17;99540.97;1809010;78;21715;-75
2021/05/08 00:12:49;;;;;;;5.30;2.83;;;;;;;12.31;89.02;99533.03;1811864;78;21334;-74
2021/05/08 00:15:17;;;;;;;4.97;3.00;;;;;;;12.30;89.06;99530.64;1809051;78;21412;-74
2021/05/08 00:17:45;;;;;;;4.63;2.93;;;;;;;12.35;89.01;99526.00;1808965;78;21918;-74
2021/05/08 00:20:15;;;;;;;5.17;3.10;;;;;;;12.40;88.95;99527.27;1813711;77;21397;-74
2021/05/08 00:22:44;;;;;;;4.83;3.30;;;;;;;12.44;88.85;99526.92;1823585;77;21898;-74
2021/05/08 00:25:12;;;;;;;5.67;3.03;;;;;;;12.46;88.77;99525.27;1830673;77;21223;-75
2021/05/08 00:27:40;;;;;;;5.53;3.20;;;;;;;12.49;88.67;99523.89;1855966;77;21267;-74
2021/05/08 00:30:11;;;;;;;6.30;3.57;;;;;;;12.49;88.58;99517.99;1817334;78;21417;-74
2021/05/08 00:32:39;;;;;;;5.28;2.95;;;;;;;12.52;88.49;99532.69;1842448;75;22278;-74
2021/05/08 00:35:07;;;;;;;4.63;3.37;;;;;;;12.52;88.33;99542.06;1812117;78;21255;-74
2021/05/08 00:37:36;;;;;;;5.43;3.23;;;;;;;12.48;88.14;99544.53;1819898;77;21662;-75
2021/05/08 00:40:04;;;;;;;5.03;3.00;;;;;;;12.43;88.15;99534.69;1812845;77;21409;-75
2021/05/08 00:42:32;;;;;;;5.27;2.97;;;;;;;12.43;88.12;99530.67;1813895;77;21340;-74
2021/05/08 00:45:01;;;;;;;5.10;3.47;;;;;;;12.37;87.98;99540.42;1844554;77;21730;-74
2021/05/08 00:47:29;;;;;;;5.10;2.90;;;;;;;12.23;87.94;99547.08;1815956;78;21395;-74
2021/05/08 00:49:57;;;;;;;4.83;3.77;;;;;;;12.07;88.11;99549.19;1817640;78;21373;-74
2021/05/08 00:52:26;;;;;;;5.67;3.87;;;;;;;12.00;88.43;99534.59;1812580;78;21450;-74
2021/05/08 00:54:56;;;;;;;5.00;3.37;;;;;;;12.00;88.63;99532.72;1823814;78;21416;-74
2021/05/08 00:57:26;;;;;;;5.50;3.87;;;;;;;12.02;88.74;99533.77;1811948;77;21602;-74
2021/05/08 00:59:55;;;;;;;5.63;3.40;;;;;;;12.00;88.88;99538.61;1815303;77;21215;-75
2021/05/08 01:02:23;;;;;;;4.53;2.93;;;;;;;11.95;88.99;99548.31;1842347;75;21409;-75
2021/05/08 01:04:51;;;;;;;6.30;4.07;;;;;;;11.90;89.17;99551.05;1803516;78;21367;-74
2021/05/08 01:07:19;;;;;;;6.10;3.30;;;;;;;11.87;89.34;99548.95;1779481;77;21323;-73
2021/05/08 01:09:48;;;;;;;5.07;3.60;;;;;;;11.85;89.51;99539.10;1817285;77;21389;-73
2021/05/08 01:12:17;;;;;;;5.53;3.63;;;;;;;11.87;89.72;99538.25;1815379;77;21335;-73
2021/05/08 01:14:47;;;;;;;5.17;3.33;;;;;;;11.89;89.77;99537.98;1843066;76;21926;-74
2021/05/08 01:17:15;;;;;;;6.37;3.57;;;;;;;11.91;89.89;99537.13;1818956;77;21437;-74
2021/05/08 01:19:44;;;;;;;5.23;3.47;;;;;;;11.94;89.95;99525.84;1761763;78;21389;-74
2021/05/08 01:22:12;;;;;;;4.80;3.30;;;;;;;11.97;89.95;99519.36;1793703;77;21730;-74
2021/05/08 01:24:40;;;;;;;5.50;3.63;;;;;;;12.03;89.94;99517.41;1818382;77;21682;-74
2021/05/08 01:27:09;;;;;;;5.53;3.50;;;;;;;12.03;89.89;99520.63;1819600;77;21299;-74
2021/05/08 01:29:37;;;;;;;6.10;3.83;;;;;;;12.02;89.84;99529.22;1843706;75;21807;-74
2021/05/08 01:32:06;;;;;;;6.20;3.70;;;;;;;12.02;89.84;99530.55;1834648;77;21462;-75
2021/05/08 01:34:34;;;;;;;5.53;4.40;;;;;;;11.99;89.82;99526.33;1804360;78;21367;-74
2021/05/08 01:37:03;;;;;;;5.77;4.00;;;;;;;11.97;89.83;99531.41;1823471;78;21115;-74
2021/05/08 01:39:31;;;;;;;5.13;3.70;;;;;;;12.02;89.86;99525.75;1823936;78;21503;-74
2021/05/08 01:42:00;;;;;;;6.67;4.40;;;;;;;12.05;89.84;99538.55;1814005;78;21458;-75
2021/05/08 01:44:28;;;;;;;6.70;4.80;;;;;;;12.00;89.80;99548.77;1814841;78;21328;-74
2021/05/08 01:46:55;;;;;;;4.50;3.67;;;;;;;11.97;89.85;99550.14;1819865;77;21534;-73
2021/05/08 01:49:25;;;;;;;6.50;3.93;;;;;;;11.95;89.91;99542.96;1809931;78;21361;-74
2021/05/08 01:51:54;;;;;;;4.77;3.90;;;;;;;11.96;89.97;99539.73;1818929;78;21350;-73
2021/05/08 01:54:23;;;;;;;4.90;3.67;;;;;;;12.00;90.00;99544.75;1809218;78;21939;-74
2021/05/08 01:56:51;;;;;;;5.23;3.93;;;;;;;12.03;89.95;99548.19;1831791;76;21211;-74
2021/05/08 01:59:21;;;;;;;5.43;3.67;;;;;;;12.07;89.92;99543.05;1853227;76;21396;-74
2021/05/08 02:01:49;;;;;;;6.20;4.53;;;;;;;12.06;89.82;99545.48;1842877;76;21442;-75
2021/05/08 02:04:18;;;;;;;5.07;4.00;;;;;;;12.05;89.70;99543.91;1856323;77;21413;-74
2021/05/08 02:06:49;;;;;;;5.50;4.00;;;;;;;11.97;89.63;99540.77;1836604;77;21433;-74
2021/05/08 02:09:25;;;;;;;4.50;3.30;;;;;;;11.91;89.64;99536.61;1794819;77;21405;-75
2021/05/08 02:11:54;;;;;;;6.50;4.27;;;;;;;11.90;89.66;99535.00;1838298;77;21387;-74
2021/05/08 02:14:22;;;;;;;6.57;4.90;;;;;;;11.84;89.57;99542.02;1841209;76;21226;-75
2021/05/08 02:16:50;;;;;;;6.50;5.20;;;;;;;11.78;89.67;99538.64;1836858;77;21469;-74
2021/05/08 02:19:19;;;;;;;6.57;4.53;;;;;;;11.77;89.73;99542.93;1821907;77;21990;-74
2021/05/08 02:21:47;;;;;;;5.57;4.40;;;;;;;11.76;89.77;99539.47;1842324;76;22089;-75
2021/05/08 02:24:15;;;;;;;5.60;4.37;;;;;;;11.70;89.82;99533.38;1815194;78;21458;-75
2021/05/08 02:26:44;;;;;;;7.03;4.83;;;;;;;11.64;89.89;99527.06;1835740;77;21354;-75
2021/05/08 02:29:11;;;;;;;7.63;4.80;;;;;;;11.61;89.98;99527.09;1832183;77;21298;-74
2021/05/08 02:31:40;;;;;;;7.73;4.90;;;;;;;11.59;90.08;99523.92;1836269;76;21368;-74
2021/05/08 02:34:08;;;;;;;5.43;4.20;;;;;;;11.59;90.17;99517.23;1835892;76;21469;-74
2021/05/08 02:36:36;;;;;;;6.97;4.70;;;;;;;11.61;90.24;99518.27;1859040;76;21847;-74
2021/05/08 02:39:05;;;;;;;6.77;5.20;;;;;;;11.61;90.27;99518.27;1816867;78;21394;-75
2021/05/08 02:41:33;;;;;;;6.23;4.87;;;;;;;11.58;90.27;99518.33;1811384;77;21363;-74
2021/05/08 02:44:02;;;;;;;8.07;4.57;;;;;;;11.57;90.35;99526.08;1814771;78;21262;-73
2021/05/08 02:46:30;;;;;;;8.30;4.97;;;;;;;11.56;90.39;99523.16;1829241;77;21208;-74
2021/05/08 02:48:58;;;;;;;8.13;4.67;;;;;;;11.51;90.46;99519.20;1842190;76;21408;-73
2021/05/08 02:51:26;;;;;;;6.37;4.20;;;;;;;11.50;90.54;99522.42;1849090;77;21446;-75
2021/05/08 02:53:54;;;;;;;6.07;4.60;;;;;;;11.48;90.64;99525.95;1848036;76;21774;-75
2021/05/08 02:56:22;;;;;;;6.33;5.20;;;;;;;11.45;90.75;99530.53;1831162;77;21269;-74
2021/05/08 02:58:50;;;;;;;6.40;4.67;;;;;;;11.45;90.82;99543.08;1815394;77;21351;-74
2021/05/08 03:01:18;;;;;;;6.10;4.73;;;;;;;11.45;90.86;99530.53;1823113;78;21487;-75
2021/05/08 03:03:47;;;;;;;6.73;4.33;;;;;;;11.47;90.89;99515.52;1821594;78;21448;-74
2021/05/08 03:06:14;;;;;;;6.17;4.43;;;;;;;11.51;90.91;99507.17;1806949;78;21328;-73
2021/05/08 03:08:44;;;;;;;6.93;5.13;;;;;;;11.53;90.89;99509.02;1788683;78;21283;-73
2021/05/08 03:11:15;;;;;;;5.97;4.37;;;;;;;11.53;90.80;99514.92;1807929;77;21333;-73
2021/05/08 03:13:46;;;;;;;6.22;4.97;;;;;;;11.54;90.77;99528.53;1817959;77;21642;-73
2021/05/08 03:16:15;;;;;;;6.23;4.80;;;;;;;11.55;90.73;99548.32;1823310;78;21576;-73
2021/05/08 03:18:46;;;;;;;6.97;5.03;;;;;;;11.54;90.69;99542.70;1823187;78;21186;-74
2021/05/08 03:21:14;;;;;;;6.63;4.93;;;;;;;11.56;90.65;99540.55;1811668;77;21412;-74
2021/05/08 03:23:43;;;;;;;7.83;5.07;;;;;;;11.57;90.56;99544.80;1836754;76;21350;-75
2021/05/08 03:26:11;;;;;;;6.40;5.17;;;;;;;11.61;90.51;99544.47;1825326;77;21412;-72
2021/05/08 03:28:39;;;;;;;7.07;4.97;;;;;;;11.65;90.45;99543.37;1818489;77;21741;-74
2021/05/08 03:31:07;;;;;;;6.57;5.40;;;;;;;11.72;90.43;99537.13;1815735;77;21345;-74
2021/05/08 03:33:37;;;;;;;5.70;4.97;;;;;;;11.84;90.47;99535.33;1812900;78;21424;-73
2021/05/08 03:36:05;;;;;;;6.00;4.57;;;;;;;11.94;90.38;99528.52;1817679;78;21528;-73
2021/05/08 03:38:33;;;;;;;6.33;4.93;;;;;;;12.01;90.29;99517.45;1823682;78;21880;-74
2021/05/08 03:41:01;;;;;;;6.73;5.10;;;;;;;12.10;90.12;99533.10;1814794;78;21343;-73
2021/05/08 03:43:28;;;;;;;8.03;5.40;;;;;;;12.13;89.87;99529.30;1803898;78;21401;-74
2021/05/08 03:45:57;;;;;;;6.90;5.17;;;;;;;12.14;89.74;99527.41;1812637;78;21425;-74
2021/05/08 03:48:24;;;;;;;6.33;5.00;;;;;;;12.18;89.62;99527.09;1821604;77;21597;-74
2021/05/08 03:50:53;;;;;;;5.50;4.63;;;;;;;12.18;89.45;99517.73;1818564;78;21322;-75
2021/05/08 03:53:21;;;;;;;8.70;4.93;;;;;;;12.19;89.34;99508.60;1817606;78;21411;-74
2021/05/08 03:55:51;;;;;;;6.93;4.80;;;;;;;12.24;89.20;99514.41;1798132;78;21124;-74
2021/05/08 03:58:27;;;;;;;7.83;5.00;;;;;;;12.27;88.99;99516.49;1845682;75;21288;-75
2021/05/08 04:00:56;;;;;;;8.20;5.17;;;;;;;12.31;88.76;99519.65;1827865;77;21489;-73
2021/05/08 04:03:24;;;;;;;7.27;4.70;;;;;;;12.33;88.50;99526.03;1821324;78;21508;-73
2021/05/08 04:05:52;;;;;;;6.40;5.10;;;;;;;12.34;88.30;99529.77;1814286;78;21448;-73
2021/05/08 04:08:21;;;;;;;5.63;4.80;;;;;;;12.38;88.11;99534.00;1822147;77;21421;-74
2021/05/08 04:10:49;;;;;;;6.10;4.77;;;;;;;12.42;87.99;99542.48;1828652;77;21315;-74
2021/05/08 04:13:17;;;;;;;6.00;4.73;;;;;;;12.46;87.75;99537.33;1824541;77;21477;-75
2021/05/08 04:15:47;;;;;;;6.90;4.70;;;;;;;12.49;87.59;99541.30;1821241;78;21412;-74
2021/05/08 04:18:15;;;;;;;6.07;4.40;;;;;;;12.53;87.37;99544.43;1820570;77;21316;-75
2021/05/08 04:20:48;;;;;;;6.77;4.53;;;;;;;12.55;87.12;99545.49;1817761;77;21814;-75
2021/05/08 04:23:17;;;;;;;6.30;4.70;;;;;;;12.56;86.88;99543.05;1823426;77;21415;-75
2021/05/08 04:25:47;;;;;;;6.63;4.30;;;;;;;12.60;86.71;99538.69;1809229;78;21317;-75
2021/05/08 04:28:15;;;;;;;6.00;4.43;;;;;;;12.63;86.51;99537.55;1795862;78;21311;-75
2021/05/08 04:30:43;;;;;;;5.73;4.00;;;;;;;12.60;86.21;99534.67;1816382;77;21834;-75
2021/05/08 04:33:13;;;;;;;6.20;4.70;;;;;;;12.56;85.98;99548.41;1819545;77;21273;-75
2021/05/08 04:35:41;;;;;;;6.93;4.80;;;;;;;12.49;85.75;99553.36;1818681;78;21449;-75
2021/05/08 04:38:08;;;;;;;5.70;4.63;;;;;;;12.33;85.71;99550.92;1852023;75;21242;-75
2021/05/08 04:40:36;;;;;;;7.17;4.70;;;;;;;12.20;85.79;99548.45;1835001;77;21517;-75
2021/05/08 04:43:03;;;;;;;6.30;4.73;;;;;;;12.16;86.08;99546.11;1826567;78;21765;-75
2021/05/08 04:45:32;;;;;;;6.60;5.00;;;;;;;12.18;86.26;99551.19;1816038;77;21948;-74
2021/05/08 04:48:00;;;;;;;6.33;4.90;;;;;;;12.24;86.42;99552.70;1816037;77;21368;-75
2021/05/08 04:50:27;;;;;;;5.67;4.40;;;;;;;12.29;86.45;99556.63;1794164;79;21878;-75
2021/05/08 04:52:55;;;;;;;8.07;5.23;;;;;;;12.36;86.46;99566.95;1828730;78;21721;-75
2021/05/08 04:55:23;;;;;;;7.17;4.53;;;;;;;12.33;86.45;99576.36;1814839;77;21381;-75
2021/05/08 04:57:51;;;;;;;6.70;4.57;;;;;;;12.34;86.48;99584.67;1815320;77;21267;-75
2021/05/08 05:00:20;;;;;;;6.10;4.67;;;;;;;12.35;86.51;99585.45;1825845;77;21281;-75
2021/05/08 05:02:49;;;;;;;5.63;4.53;;;;;;;12.33;86.48;99583.05;1846330;75;21853;-74
2021/05/08 05:05:18;;;;;;;5.83;4.50;;;;;;;12.33;86.49;99585.73;1847606;75;21306;-74
2021/05/08 05:07:47;;;;;;;6.47;4.40;;;;;;;12.31;86.50;99582.57;1843974;75;21676;-75
2021/05/08 05:10:15;;;;;;;5.43;3.97;;;;;;;12.25;86.34;99581.05;1838183;77;21304;-74
2021/05/08 05:12:47;;;;;;;5.67;4.87;;;;;;;12.16;86.49;99586.81;1839709;75;21354;-74
2021/05/08 05:15:17;;;;;;;6.87;5.07;;;;;;;12.07;86.74;99590.68;1813884;77;21405;-75
2021/05/08 05:17:46;;;;;;;5.87;4.43;;;;;;;12.04;87.04;99593.14;1834977;75;22027;-75
2021/05/08 05:20:14;;;;;;;6.80;5.20;;;;;;;12.02;87.19;99589.98;1800956;79;21316;-75
2021/05/08 05:22:41;;;;;;;8.53;5.60;;;;;;;11.99;87.41;99586.00;1821731;77;21354;-75
2021/05/08 05:25:10;;;;;;;6.80;4.77;;;;;;;11.95;87.48;99588.45;1806442;77;21382;-76
2021/05/08 05:27:38;;;;;;;8.43;5.40;;;;;;;11.99;87.69;99591.34;1841739;75;21400;-78
2021/05/08 05:30:07;;;;;;;7.90;5.47;;;;;;;12.02;87.73;99587.30;1853637;75;21386;-75
2021/05/08 05:32:36;;;;;;;8.93;6.00;;;;;;;12.03;87.79;99588.88;1854020;75;21214;-77
2021/05/08 05:35:05;;;;;;;7.93;5.20;;;;;;;12.07;87.82;99599.25;1807299;78;21447;-75
2021/05/08 05:37:32;;;;;;;6.23;5.07;;;;;;;12.06;87.64;99593.11;1818378;77;21894;-75
2021/05/08 05:40:00;;;;;;;6.60;5.53;;;;;;;12.09;87.64;99597.09;1807210;78;21705;-75
2021/05/08 05:42:28;;;;;;;7.67;5.90;;;;;;;12.10;87.62;99602.14;1817243;77;21179;-75
2021/05/08 05:44:56;;;;;;;7.50;5.60;;;;;;;12.14;87.71;99600.50;1814662;77;22045;-77
2021/05/08 05:47:26;;;;;;;9.30;5.53;;;;;;;12.17;87.63;99591.89;1808169;78;21972;-75
2021/05/08 05:49:56;;;;;;;;;;;;;;;12.16;87.47;99585.47;1821861;77;21533;-74
2021/05/08 05:52:24;;;;;;;6.97;5.90;;;;;;;12.19;87.50;99588.91;1814020;78;20299;-74
2021/05/08 05:54:52;;;;;;;6.70;5.63;;;;;;;12.21;87.38;99593.44;1820567;78;21358;-74
2021/05/08 05:57:21;;;;;;;7.97;6.50;;;;;;;12.20;86.97;99594.51;1825473;78;21241;-74
2021/05/08 05:59:51;;;;;;;8.63;6.60;;;;;;;12.15;86.88;99592.72;1832873;78;21782;-74
2021/05/08 06:02:19;;;;;;;8.63;6.20;;;;;;;12.16;86.99;99582.25;1824749;78;21375;-77
2021/05/08 06:04:47;;;;;;;6.93;5.93;;;;;;;12.20;86.89;99593.17;1836690;78;21402;-74
2021/05/08 06:07:15;;;;;;;6.70;5.70;;;;;;;12.22;86.69;99588.33;1816717;77;21783;-75
2021/05/08 06:09:44;;;;;;;6.40;5.60;;;;;;;12.24;86.45;99600.08;1850551;76;21417;-75
2021/05/08 06:12:14;;;;;;;7.53;5.37;;;;;;;12.24;86.13;99594.20;1845466;75;21449;-74
2021/05/08 06:14:42;;;;;;;7.50;5.17;;;;;;;12.27;85.80;99605.64;1844123;75;21749;-75
2021/05/08 06:17:10;;;;;;;6.53;5.23;;;;;;;12.23;84.72;99604.64;1838129;76;21863;-76
2021/05/08 06:19:38;;;;;;;7.10;5.47;;;;;;;12.19;84.36;99600.95;1815191;77;21371;-75
2021/05/08 06:22:06;;;;;;;6.60;5.30;;;;;;;12.15;84.16;99606.65;1810632;78;21277;-76
2021/05/08 06:24:35;;;;;;;7.17;5.47;;;;;;;12.15;84.16;99603.97;1814868;77;21398;-75
2021/05/08 06:27:03;;;;;;;6.27;4.97;;;;;;;12.19;83.89;99608.98;1781095;78;21552;-74
2021/05/08 06:29:32;;;;;;;7.77;5.03;;;;;;;12.19;83.62;99610.33;1819782;77;21260;-76
2021/05/08 06:31:59;;;;;;;7.23;5.57;;;;;;;12.14;83.00;99611.73;1816525;78;21398;-74
2021/05/08 06:34:27;;;;;;;6.87;5.00;;;;;;;12.10;82.78;99617.41;1821467;78;21413;-74
2021/05/08 06:36:55;;;;;;;6.77;4.83;;;;;;;12.07;82.82;99616.66;1819172;78;21387;-74
2021/05/08 06:39:23;;;;;;;6.53;3.90;;;;;;;12.02;83.00;99614.06;1815112;77;21411;-76
2021/05/08 06:41:51;;;;;;;6.10;4.07;;;;;;;11.93;82.83;99615.24;1822832;77;21434;-75
2021/05/08 06:44:19;;;;;;;6.47;3.37;;;;;;;11.86;82.51;99625.52;1835925;77;22070;-74
2021/05/08 06:46:46;;;;;;;5.90;3.07;;;;;;;11.76;81.87;99626.41;1830512;77;21325;-76
2021/05/08 06:49:14;;;;;;;5.40;2.97;;;;;;;11.66;81.23;99627.87;1831825;77;21510;-75
2021/05/08 06:51:42;;;;;;;4.80;2.80;;;;;;;11.57;80.88;99637.06;1822934;78;21400;-74
2021/05/08 06:54:09;;;;;;;7.00;3.37;;;;;;;11.51;81.14;99641.67;1849255;76;21329;-74
2021/05/08 06:56:37;;;;;;;5.37;3.20;;;;;;;11.46;81.50;99636.94;1849176;77;21632;-74
2021/05/08 06:59:05;;;;;;;5.13;3.20;;;;;;;11.42;81.95;99650.09;1820789;77;21876;-75
2021/05/08 07:01:33;;;;;;;4.37;3.40;;;;;;;11.38;82.45;99658.40;1824860;78;21274;-75
2021/05/08 07:04:00;;;;;;;5.33;3.90;;;;;;;11.32;83.03;99657.40;1850339;77;21382;-74
2021/05/08 07:06:29;;;;;;;4.43;3.10;;;;;;;11.19;83.71;99664.23;1850476;76;22799;-74
2021/05/08 07:09:00;;;;;;;4.90;2.77;;;;;;;11.01;84.53;99667.86;1807867;78;21718;-75
2021/05/08 07:11:27;;;;;;;4.43;2.90;;;;;;;10.85;84.94;99673.62;1817402;77;21268;-74
2021/05/08 07:13:55;;;;;;;6.07;2.90;;;;;;;10.71;85.58;99674.26;1812242;78;21438;-75
2021/05/08 07:16:22;;;;;;;3.87;2.80;;;;;;;10.58;85.84;99681.56;1848166;75;21450;-75
2021/05/08 07:18:51;;;;;;;4.10;2.65;;;;;;;10.47;85.88;99688.86;1841882;75;21446;-76
2021/05/08 07:21:20;;;;;;;4.22;2.83;;;;;;;10.39;86.33;99697.44;1839019;75;22142;-75
2021/05/08 07:23:47;;;;;;;3.90;2.80;;;;;;;10.36;86.63;99698.53;1842683;75;21175;-76
2021/05/08 07:26:15;;;;;;;3.95;3.10;;;;;;;10.31;86.97;99694.83;1817641;77;21847;-74
2021/05/08 07:28:43;;;;;;;4.00;2.75;;;;;;;10.33;87.31;99703.87;1803106;78;21227;-76
2021/05/08 07:31:10;;;;;;;4.10;2.63;;;;;;;10.36;87.67;99705.99;1822973;77;21191;-75
2021/05/08 07:33:38;;;;;;;4.87;3.05;;;;;;;10.36;87.85;99720.67;1813859;78;22534;-76
2021/05/08 07:36:06;;;;;;;4.78;3.40;;;;;;;10.31;88.01;99718.05;1812395;77;21155;-76
2021/05/08 07:38:34;;;;;;;4.50;3.70;;;;;;;10.31;88.20;99728.19;1811822;77;21168;-76
2021/05/08 07:41:04;;;;;;;5.17;3.47;;;;;;;10.32;88.45;99731.11;1793703;77;21504;-75
2021/05/08 07:43:32;;;;;;;6.05;3.85;;;;;;;10.32;88.58;99738.33;1801810;79;21180;-75
2021/05/08 07:45:59;;;;;;;5.17;3.75;;;;;;;10.26;88.71;99744.75;1816033;77;22132;-75
2021/05/08 07:48:28;;;;;;;5.58;4.33;;;;;;;10.23;88.79;99749.27;1839449;77;21171;-74
2021/05/08 07:50:56;;;;;;;5.33;3.98;;;;;;;10.22;88.97;99747.69;1818802;77;22434;-76
2021/05/08 07:53:23;;;;;;;5.05;3.85;;;;;;;10.24;89.32;99753.02;1821464;78;21168;-75
2021/05/08 07:55:51;;;;;;;4.75;3.87;;;;;;;10.23;89.32;99748.77;1811838;77;21160;-76
2021/05/08 07:58:21;;;;;;;4.90;3.80;;;;;;;10.20;89.33;99762.66;1778885;78;21211;-75
2021/05/08 08:00:49;;;;;;;4.65;2.85;;;;;;;10.15;89.46;99768.00;1788690;78;21123;-76
2021/05/08 08:03:16;;;;;;;4.15;2.83;;;;;;;10.07;89.28;99765.91;1850957;77;21247;-76
2021/05/08 08:05:46;;;;;;;4.50;2.58;;;;;;;10.03;89.02;99768.83;1849511;77;21180;-76
2021/05/08 08:08:14;;;;;;;6.40;2.58;;;;;;;9.98;88.70;99771.53;1848572;76;21195;-75
2021/05/08 08:10:41;;;;;;;4.87;3.10;;;;;;;9.95;88.31;99790.21;1843392;77;21185;-76
2021/05/08 08:13:10;;;;;;;4.17;2.50;;;;;;;9.93;88.26;99782.21;1833691;77;21220;-75
2021/05/08 08:15:39;;;;;;;3.87;2.70;;;;;;;9.93;88.14;99806.22;1835725;77;21140;-75
2021/05/08 08:18:09;;;;;;;5.12;3.10;;;;;;;9.94;87.77;99801.17;1845808;76;21693;-74
2021/05/08 08:20:37;;;;;;;4.80;3.33;;;;;;;9.91;86.76;99807.04;1845041;76;21152;-76
2021/05/08 08:23:05;;;;;;;4.67;3.67;;;;;;;9.82;85.22;99790.78;1801004;78;21255;-75
2021/05/08 08:25:33;;;;;;;5.67;3.95;;;;;;;9.74;84.17;99824.14;1812945;78;22540;-78
2021/05/08 08:28:01;;;;;;;5.60;3.70;;;;;;;9.71;83.89;99795.34;1819395;77;21709;-76
2021/05/08 08:30:28;;;;;;;5.00;3.80;;;;;;;9.68;83.62;99805.22;1815325;77;21169;-76
2021/05/08 08:32:57;;;;;;;4.53;3.20;;;;;;;9.66;83.62;99807.34;1813290;78;21127;-77
2021/05/08 08:35:25;;;;;;;4.92;3.20;;;;;;;9.62;83.33;99823.08;1806585;78;21194;-74
2021/05/08 08:37:53;;;;;;;4.53;3.20;;;;;;;9.54;82.62;99830.80;1828022;78;21152;-74
2021/05/08 08:40:21;;;;;;;5.60;3.30;;;;;;;9.37;82.24;99823.08;1821007;77;21125;-74
2021/05/08 08:42:49;;;;;;;4.65;3.02;;;;;;;9.20;82.29;99848.66;1785753;78;21168;-74
2021/05/08 08:45:17;;;;;;;4.75;3.20;;;;;;;9.06;82.63;99835.59;1811743;78;21113;-76
2021/05/08 08:47:45;;;;;;;4.15;2.52;;;;;;;8.92;82.35;99839.30;1849505;75;21183;-74
2021/05/08 08:50:14;;;;;;;4.30;2.90;;;;;;;8.83;82.78;99856.85;1814318;77;21310;-76
2021/05/08 08:52:42;;;;;;;5.67;3.17;;;;;;;8.76;82.25;99865.63;1827280;77;21135;-75
2021/05/08 08:55:12;;;;;;;4.55;2.52;;;;;;;8.72;82.44;99872.51;1834056;77;21644;-74
2021/05/08 08:57:42;;;;;;;5.20;2.77;;;;;;;8.70;82.48;99863.47;1830103;77;21164;-74
2021/05/08 09:00:14;;;;;;;5.45;2.90;;;;;;;8.74;82.34;99865.07;1823388;77;21193;-75
2021/05/08 09:02:45;;;;;;;5.20;2.83;;;;;;;8.81;82.27;99880.27;1829796;77;21180;-73
2021/05/08 09:05:19;;;;;;;5.80;2.40;;;;;;;8.86;82.00;99871.77;1823836;78;21191;-75
2021/05/08 09:07:47;;;;;;;4.20;2.15;;;;;;;8.92;81.49;99873.39;1835062;78;21579;-75
2021/05/08 09:10:25;;;;;;;4.30;2.45;;;;;;;8.96;81.11;99878.20;1826350;77;21160;-75
2021/05/08 09:13:06;;;;;;;5.10;2.30;;;;;;;8.99;80.46;99889.66;1789671;79;23541;-68
2021/05/08 09:15:41;;;;;;;3.98;2.58;;;;;;;8.97;80.30;99886.45;1761546;79;21232;-69
2021/05/08 09:18:28;;;;;;;3.72;2.60;;;;;;;8.94;79.50;99893.09;1792011;78;22361;-67
2021/05/08 09:20:56;;;;;;;4.95;2.60;;;;;;;8.96;79.84;99886.98;1786233;77;21326;-66
2021/05/08 09:23:37;;;;;;;4.03;2.40;;;;;;;9.06;80.51;99889.67;1778763;79;21631;-67
2021/05/08 09:26:08;;;;;;;3.05;2.10;;;;;;;9.16;80.66;99890.22;1786216;79;21175;-68
2021/05/08 09:28:38;;;;;;;4.00;2.40;;;;;;;9.20;79.59;99882.50;1783491;79;21585;-69
2021/05/08 09:31:10;;;;;;;3.40;2.12;;;;;;;9.19;78.79;99892.36;1778658;78;21252;-69
2021/05/08 09:33:37;;;;;;;3.12;1.80;;;;;;;9.22;78.93;99894.50;1782545;78;21179;-74
2021/05/08 09:36:13;;;;;;;3.77;2.00;;;;;;;9.28;78.84;99893.45;1792826;79;21171;-75
2021/05/08 09:38:43;;;;;;;3.37;1.70;;;;;;;9.34;78.81;99906.23;1784387;78;21199;-75
2021/05/08 09:41:14;;;;;;;3.75;2.02;;;;;;;9.42;77.80;99900.39;1780250;78;21171;-75
2021/05/08 09:46:25;;;;;;;2.80;1.60;;;;;;;9.49;75.37;99911.59;1761757;78;22961;-76
2021/05/08 09:49:12;;;;;;;2.58;1.67;;;;;;;9.46;75.54;99922.78;1799509;79;21184;-77
2021/05/08 09:51:40;;;;;;;2.45;1.30;;;;;;;9.53;74.97;99913.98;1774360;79;21201;-80
2021/05/08 09:54:16;;;;;;;2.92;1.60;;;;;;;9.51;74.22;99908.14;1770519;79;21267;-75
2021/05/08 09:56:47;;;;;;;4.10;1.80;;;;;;;9.52;73.85;99921.72;1789044;79;21196;-73
2021/05/08 09:59:37;;;;;;;2.67;1.57;;;;;;;9.55;73.45;99929.73;1803238;79;21165;-74
2021/05/08 10:02:12;;;;;;;2.55;1.60;;;;;;;9.59;73.08;99923.59;1778686;79;21208;-75
2021/05/08 10:04:49;;;;;;;2.92;1.72;;;;;;;9.67;72.31;99935.59;1771481;80;21212;-72
2021/05/08 10:07:24;;;;;;;2.37;1.50;;;;;;;9.73;71.58;99944.39;1803646;79;21147;-72
2021/05/08 10:12:38;;;;;;;3.83;1.63;;;;;;;9.91;70.57;99920.41;1754041;79;23395;-76
2021/05/08 10:15:10;;;;;;;3.60;1.85;;;;;;;9.91;70.88;99931.08;1718315;82;21065;-76
2021/05/08 10:17:38;;;;;;;2.67;1.70;;;;;;;9.99;70.51;99937.99;1720623;82;21210;-75
2021/05/08 10:20:13;;;;;;;4.35;1.45;;;;;;;10.06;70.25;99937.72;1723737;82;21679;-75
2021/05/08 10:22:48;;;;;;;2.42;1.40;;;;;;;10.15;70.03;99956.13;1729369;82;21201;-74
2021/05/08 10:25:17;;;;;;;2.92;1.70;;;;;;;10.20;69.69;99944.64;1730330;81;21116;-74
2021/05/08 10:27:44;;;;;;;3.02;1.60;;;;;;;10.25;69.81;99957.45;1724181;82;21643;-77
2021/05/08 10:30:21;;;;;;;3.70;1.50;;;;;;;10.27;68.99;99957.23;1742516;82;21726;-75
2021/05/08 10:32:50;;;;;;;3.72;1.65;;;;;;;10.24;68.17;99956.40;1730840;82;21680;-75
2021/05/08 10:35:42;;;;;;;2.47;1.50;;;;;;;10.19;67.83;99957.72;1730322;82;21208;-75
2021/05/08 10:38:22;;;;;;;3.20;1.60;;;;;;;10.22;67.53;99955.86;1723743;82;21180;-75
2021/05/08 10:40:56;;;;;;;3.40;1.50;;;;;;;10.31;67.17;99957.74;1743808;82;21616;-76
2021/05/08 10:43:54;;;;;;;2.05;1.00;;;;;;;10.44;66.50;99964.94;1732780;82;21204;-75
2021/05/08 10:46:27;;;;;;;1.95;1.30;;;;;;;10.50;65.65;99961.98;1699317;83;21215;-75
2021/05/08 10:51:58;;;;;;;2.87;1.20;;;;;;;10.74;65.08;99982.75;1830351;75;22743;-75
2021/05/08 10:54:45;;;;;;;2.15;1.00;;;;;;;10.78;64.71;99985.93;1816560;77;21152;-75
2021/05/08 10:57:24;;;;;;;2.33;1.30;;;;;;;10.83;64.50;99979.79;1831417;76;21178;-75
2021/05/08 11:00:10;;;;;;;3.13;1.37;;;;;;;10.78;63.56;99974.45;1803613;78;21222;-77
2021/05/08 11:02:47;;;;;;;2.52;1.37;;;;;;;10.70;64.08;99997.19;1815013;77;21213;-74
2021/05/08 11:05:28;;;;;;;5.20;3.20;;;;;;;10.65;64.24;99979.83;1837865;76;21202;-76
2021/05/08 11:07:59;;;;;;;2.60;1.50;;;;;;;10.71;64.12;99989.97;1812742;76;21341;-75
2021/05/08 11:10:38;;;;;;;3.70;1.10;;;;;;;10.76;64.35;99986.75;1800129;79;21193;-75
2021/05/08 11:13:14;;;;;;;1.70;1.10;;;;;;;10.83;63.95;99989.14;1809988;76;21451;-76
2021/05/08 11:16:03;;;;;;;2.30;1.30;;;;;;;10.81;63.24;99984.59;1826793;76;21354;-75
2021/05/08 11:18:35;;;;;;;3.40;1.30;;;;;;;10.66;63.54;99984.11;1811853;76;21325;-74
2021/05/08 11:21:19;;;;;;;2.25;1.45;;;;;;;10.50;64.33;99994.02;1810013;76;21337;-73
2021/05/08 11:23:59;;;;;;;2.57;1.37;;;;;;;10.40;64.61;99995.38;1824100;76;21600;-76
2021/05/08 11:26:33;;;;;;;;;;;;;;;10.28;64.69;99989.52;1821162;76;22017;-78
2021/05/08 11:29:21;;;;;;;1.85;1.15;;;;;;;10.15;67.46;100011.38;1818181;76;20289;-75
2021/05/08 11:31:52;;;;;;;2.45;1.32;;;;;;;9.79;70.43;100044.15;1811667;78;21218;-75
2021/05/08 11:34:24;;;;;;;2.33;1.32;;;;;;;9.26;72.81;100050.13;1819799;77;21143;-74
2021/05/08 11:37:02;;;;;;;2.00;1.35;;;;;;;8.97;74.93;100044.39;1819972;76;21575;-74
2021/05/08 11:39:45;;;;;;;1.90;1.15;;;;;;;8.82;76.84;100058.97;1811928;76;21682;-75
2021/05/08 11:42:23;;;;;;;1.45;1.05;;;;;;;8.71;77.75;100062.61;1807698;76;21185;-76
2021/05/08 11:44:58;;;;;;;3.37;1.10;;;;;;;8.53;77.65;100081.13;1813178;76;21075;-74
2021/05/08 11:47:30;;;;;;;2.33;1.20;;;;;;;8.32;78.36;100068.14;1815897;78;21190;-78
2021/05/08 11:50:08;;;;;;;2.15;1.20;;;;;;;8.19;79.31;100118.08;1811480;78;21460;-75
2021/05/08 11:52:44;;;;;;;5.28;1.50;;;;;;;8.06;80.18;100090.55;1814872;77;21179;-75
2021/05/08 11:55:18;;;;;;;2.52;1.32;;;;;;;7.96;80.79;100107.72;1818263;78;21661;-75